Time;durP1;ratioP1;P1;durP2;ratioP2;P2;SDS_P1;SDS_P2;PMS_P1;PMS_P2;Temp;Humidity;BMP_temperature;BMP_pressure;BME280_temperature;BME280_humidity;BME280_pressure;Samples;Min_cycle;Max_cycle;Signal;HPM_P1;HPM_P2
2023/08/11 00:00:30;;;;;;;3.78;2.22;;;;;;;19.52;52.85;93993.97;5019948;28;20053;-91
2023/08/11 00:02:56;;;;;;;2.70;2.08;;;;;;;19.51;53.08;93997.97;5026347;28;20064;-89
2023/08/11 00:05:21;;;;;;;2.97;1.98;;;;;;;19.52;52.92;94000.22;5054017;28;20044;-89
2023/08/11 00:07:50;;;;;;;3.28;2.22;;;;;;;19.50;52.77;94001.97;5061464;28;20036;-91
2023/08/11 00:10:19;;;;;;;3.35;2.30;;;;;;;19.49;53.12;93987.47;5074753;28;20493;-92
2023/08/11 00:12:45;;;;;;;3.25;2.22;;;;;;;19.51;52.92;93992.50;5070979;28;20093;-90
2023/08/11 00:15:12;;;;;;;3.03;2.40;;;;;;;19.50;52.83;93991.00;5064345;28;20036;-89
2023/08/11 00:17:37;;;;;;;2.63;2.10;;;;;;;19.48;53.09;93996.97;5093117;28;20059;-91
2023/08/11 00:20:05;;;;;;;2.65;2.33;;;;;;;19.48;52.67;93994.25;5067831;28;20043;-92
2023/08/11 00:22:31;;;;;;;2.88;2.05;;;;;;;19.49;52.74;93997.69;5053003;28;20119;-91
2023/08/11 00:24:56;;;;;;;2.30;2.03;;;;;;;19.51;52.75;93997.97;5086069;28;20620;-92
2023/08/11 00:27:22;;;;;;;3.83;2.28;;;;;;;19.50;52.62;93999.22;5067335;28;20052;-92
2023/08/11 00:29:47;;;;;;;2.28;1.75;;;;;;;19.51;52.46;93997.97;5071921;28;20040;-90
2023/08/11 00:32:13;;;;;;;2.67;2.15;;;;;;;19.50;52.55;93991.00;5072280;28;20047;-89
2023/08/11 00:34:38;;;;;;;3.15;2.25;;;;;;;19.50;52.81;94002.72;5095635;28;20040;-90
2023/08/11 00:37:04;;;;;;;2.30;2.10;;;;;;;19.49;52.69;93998.44;5085194;28;20048;-91
2023/08/11 00:39:29;;;;;;;2.92;1.70;;;;;;;19.47;52.50;94000.22;5071730;28;20047;-92
2023/08/11 00:41:55;;;;;;;2.40;2.20;;;;;;;19.46;52.72;94001.47;5054436;28;20044;-92
2023/08/11 00:44:20;;;;;;;2.22;1.90;;;;;;;19.47;52.63;94002.97;5071602;28;20036;-89
2023/08/11 00:46:47;;;;;;;2.33;1.85;;;;;;;19.50;52.49;93996.47;5071950;28;20420;-92
2023/08/11 00:49:14;;;;;;;2.72;1.52;;;;;;;19.48;52.61;94005.22;5084556;28;20051;-92
2023/08/11 00:51:39;;;;;;;3.80;1.98;;;;;;;19.49;52.67;94003.19;5071080;28;20179;-89
2023/08/11 00:54:06;;;;;;;2.05;1.80;;;;;;;19.48;52.61;93996.22;5049091;28;20131;-93
2023/08/11 00:56:32;;;;;;;2.70;1.92;;;;;;;19.47;52.63;93997.47;5051413;28;20036;-92
2023/08/11 00:58:57;;;;;;;4.38;2.28;;;;;;;19.48;52.43;93994.25;5051325;28;20044;-91
2023/08/11 01:01:22;;;;;;;2.17;1.90;;;;;;;19.47;52.38;94000.22;5050113;28;20036;-91
2023/08/11 01:03:48;;;;;;;4.95;2.13;;;;;;;19.46;52.59;93998.72;5056884;28;20411;-90
2023/08/11 01:06:22;;;;;;;2.03;1.73;;;;;;;19.47;52.49;93998.22;5059351;28;20490;-91
2023/08/11 01:09:23;;;;;;;3.38;1.75;;;;;;;19.47;52.68;94003.72;5054528;28;20051;-90
2023/08/11 01:12:08;;;;;;;2.35;2.15;;;;;;;19.48;52.33;94001.72;5070147;28;20040;-92
2023/08/11 01:14:38;;;;;;;2.05;1.83;;;;;;;19.47;52.68;94003.72;5049708;28;20565;-89
2023/08/11 01:17:04;;;;;;;3.08;1.70;;;;;;;19.47;52.65;94000.22;5056886;28;20044;-90
2023/08/11 01:19:34;;;;;;;2.17;1.85;;;;;;;19.46;52.56;94010.44;5034612;28;20037;-90
2023/08/11 01:22:00;;;;;;;2.57;2.17;;;;;;;19.46;52.27;93998.72;5045015;28;20050;-92
2023/08/11 01:24:26;;;;;;;2.90;2.30;;;;;;;19.45;52.44;93997.97;5034401;28;20123;-92
2023/08/11 01:26:51;;;;;;;3.67;2.30;;;;;;;19.46;52.29;93994.00;5055933;28;20037;-91
2023/08/11 01:29:18;;;;;;;2.28;1.92;;;;;;;19.45;52.44;93997.97;5050556;28;20051;-92
2023/08/11 01:31:44;;;;;;;2.72;2.13;;;;;;;19.47;52.50;93992.00;5047827;28;20068;-91
2023/08/11 01:34:09;;;;;;;2.95;2.05;;;;;;;19.47;52.49;93994.75;5020658;28;20076;-91
2023/08/11 01:36:36;;;;;;;2.08;1.88;;;;;;;19.46;52.36;93996.75;5034542;28;20490;-93
2023/08/11 01:39:04;;;;;;;2.08;1.45;;;;;;;19.47;52.55;93983.78;5063675;28;20051;-90
2023/08/11 01:41:30;;;;;;;2.97;2.15;;;;;;;19.47;52.41;93992.75;5057736;28;20047;-90
2023/08/11 01:43:55;;;;;;;2.45;2.10;;;;;;;19.47;52.25;93987.25;5031304;28;20222;-90
2023/08/11 01:46:21;;;;;;;2.13;1.80;;;;;;;19.48;52.32;93986.00;5045355;28;20047;-91
2023/08/11 01:48:46;;;;;;;2.28;1.90;;;;;;;19.46;52.52;93993.25;5067259;28;20059;-93
2023/08/11 01:51:12;;;;;;;2.00;1.63;;;;;;;19.47;52.43;93987.25;5058016;28;20079;-93
2023/08/11 01:53:37;;;;;;;2.83;2.17;;;;;;;19.47;52.46;93987.25;5052501;28;20349;-92
2023/08/11 01:56:05;;;;;;;1.88;1.70;;;;;;;19.45;52.47;93987.00;5090340;28;20040;-92
2023/08/11 01:58:30;;;;;;;2.42;2.05;;;;;;;19.46;52.40;93983.03;5054066;28;20040;-89
2023/08/11 02:00:56;;;;;;;2.17;1.98;;;;;;;19.47;52.24;93984.53;5058043;27;20657;-90
2023/08/11 02:03:22;;;;;;;3.38;2.22;;;;;;;19.45;52.50;93984.28;5070020;28;20086;-91
2023/08/11 02:05:48;;;;;;;2.85;1.40;;;;;;;19.46;52.43;93985.03;5089270;28;20397;-88
2023/08/11 02:08:17;;;;;;;2.40;1.90;;;;;;;19.44;52.70;93980.03;5073207;28;20031;-91
2023/08/11 02:10:45;;;;;;;3.70;2.20;;;;;;;19.43;52.65;93975.81;5091617;27;20059;-89
2023/08/11 02:13:10;;;;;;;2.50;2.15;;;;;;;19.45;52.36;93978.78;5072496;28;20043;-91
2023/08/11 02:15:36;;;;;;;2.40;2.15;;;;;;;19.44;52.55;93982.78;5057038;28;20031;-89
2023/08/11 02:18:01;;;;;;;2.65;1.80;;;;;;;19.44;52.31;93980.03;5067426;27;20039;-91
2023/08/11 02:20:28;;;;;;;5.40;1.73;;;;;;;19.45;52.43;93984.28;5081961;28;20075;-90
2023/08/11 02:22:53;;;;;;;3.40;1.95;;;;;;;19.45;52.36;93989.75;5057754;28;20131;-91
2023/08/11 02:25:19;;;;;;;2.15;1.95;;;;;;;19.44;52.27;93980.03;5054245;28;20040;-91
2023/08/11 02:27:44;;;;;;;2.17;1.63;;;;;;;19.45;51.86;93983.53;5062096;28;20480;-90
2023/08/11 02:30:11;;;;;;;2.28;1.92;;;;;;;19.45;52.54;93981.53;5089078;28;20043;-91
2023/08/11 02:32:37;;;;;;;2.10;1.80;;;;;;;19.43;52.42;93981.28;5073547;28;20397;-92
2023/08/11 02:35:04;;;;;;;2.17;1.98;;;;;;;19.45;52.49;93989.00;5073039;28;20123;-90
2023/08/11 02:37:33;;;;;;;1.83;1.67;;;;;;;19.44;52.58;93990.25;5066724;28;20598;-92
2023/08/11 02:39:58;;;;;;;2.00;1.65;;;;;;;19.44;52.51;93991.00;5066767;28;20051;-91
2023/08/11 02:42:24;;;;;;;1.65;1.55;;;;;;;19.44;52.33;93987.53;5076953;28;20032;-89
2023/08/11 02:44:50;;;;;;;3.78;2.00;;;;;;;19.44;51.94;93995.75;5061910;28;20036;-90
2023/08/11 02:47:16;;;;;;;2.00;1.70;;;;;;;19.45;52.46;93995.25;5069209;28;20149;-90
2023/08/11 02:49:42;;;;;;;3.45;1.75;;;;;;;19.43;52.27;93995.00;5067581;28;20065;-92
2023/08/11 02:52:07;;;;;;;2.22;1.77;;;;;;;19.43;52.51;93991.50;5056230;28;20040;-91
2023/08/11 02:54:33;;;;;;;3.05;1.73;;;;;;;19.43;52.33;93995.00;5085922;28;20032;-89
2023/08/11 02:56:58;;;;;;;2.20;1.85;;;;;;;19.43;52.44;93984.03;5069775;28;20040;-93
2023/08/11 02:59:24;;;;;;;2.05;1.85;;;;;;;19.43;52.22;93992.25;5069830;28;20043;-92
2023/08/11 03:01:49;;;;;;;4.32;1.70;;;;;;;19.42;52.38;93990.00;5084811;28;20039;-91
2023/08/11 03:04:17;;;;;;;2.42;2.00;;;;;;;19.42;52.13;93988.03;5075771;28;20047;-92
2023/08/11 03:06:44;;;;;;;2.28;2.03;;;;;;;19.43;52.34;93989.50;5076550;28;20038;-93
2023/08/11 03:09:09;;;;;;;2.50;1.95;;;;;;;19.43;52.06;93997.00;5080286;28;20073;-92
2023/08/11 03:11:35;;;;;;;2.30;2.00;;;;;;;19.42;52.43;93990.00;5072533;28;20032;-91
2023/08/11 03:14:01;;;;;;;1.95;1.75;;;;;;;19.43;52.08;93992.25;5090370;28;20044;-91
2023/08/11 03:16:26;;;;;;;2.70;1.80;;;;;;;19.41;52.36;93994.00;5059814;28;20032;-91
2023/08/11 03:18:52;;;;;;;2.60;2.00;;;;;;;19.41;52.33;93997.50;5073508;28;20051;-91
2023/08/11 03:21:18;;;;;;;1.67;1.58;;;;;;;19.41;52.13;93991.25;5059915;27;20047;-91
2023/08/11 03:23:43;;;;;;;2.22;1.77;;;;;;;19.40;52.10;93998.00;5080180;27;20034;-91
2023/08/11 03:26:09;;;;;;;2.47;2.05;;;;;;;19.40;52.29;93992.50;5089668;28;20597;-90
2023/08/11 03:28:35;;;;;;;2.20;1.65;;;;;;;19.39;52.12;94005.47;5078914;27;20038;-88
2023/08/11 03:31:01;;;;;;;1.92;1.55;;;;;;;19.41;52.04;93994.00;5088359;28;20055;-89
2023/08/11 03:33:26;;;;;;;2.17;1.73;;;;;;;19.41;51.95;93999.50;5076262;28;20046;-91
2023/08/11 03:35:52;;;;;;;2.22;1.73;;;;;;;19.41;52.08;94000.25;5060154;28;20040;-91
2023/08/11 03:38:18;;;;;;;1.98;1.77;;;;;;;19.42;51.99;94007.22;5059507;28;20040;-89
2023/08/11 03:40:43;;;;;;;2.38;1.90;;;;;;;19.41;52.03;94013.94;5071998;27;20519;-91
2023/08/11 03:43:09;;;;;;;2.50;1.95;;;;;;;19.42;51.95;94009.22;5082400;28;20516;-93
2023/08/11 03:45:34;;;;;;;4.85;1.77;;;;;;;19.42;52.00;94009.22;5087829;27;20042;-91
2023/08/11 03:48:00;;;;;;;1.88;1.60;;;;;;;19.42;51.90;94011.94;5069072;28;20057;-90
2023/08/11 03:50:25;;;;;;;1.65;1.40;;;;;;;19.42;51.94;94009.22;5074664;28;20521;-89
2023/08/11 03:52:51;;;;;;;1.88;1.65;;;;;;;19.42;52.13;94020.16;5073498;28;20070;-91
2023/08/11 03:55:17;;;;;;;2.20;1.95;;;;;;;19.41;51.94;94016.69;5072186;28;20040;-92
2023/08/11 03:57:43;;;;;;;2.67;1.95;;;;;;;19.41;51.79;94022.16;5093335;28;20157;-90
2023/08/11 04:00:11;;;;;;;2.28;1.60;;;;;;;19.40;51.83;94017.94;5082994;27;20153;-91
2023/08/11 04:02:36;;;;;;;2.40;1.70;;;;;;;19.41;51.87;94018.69;5087375;28;20036;-90
2023/08/11 04:05:03;;;;;;;2.08;1.70;;;;;;;19.41;51.92;94010.47;5093018;28;20039;-91
2023/08/11 04:07:28;;;;;;;1.80;1.60;;;;;;;19.40;51.77;94017.19;5059332;28;20048;-89
2023/08/11 04:09:54;;;;;;;2.05;1.55;;;;;;;19.40;52.16;94019.94;5081442;27;20054;-90
2023/08/11 04:12:19;;;;;;;2.40;1.50;;;;;;;19.41;52.23;94024.91;5078333;27;20362;-92
2023/08/11 04:14:45;;;;;;;2.63;1.60;;;;;;;19.43;52.12;94024.41;5069927;28;20651;-92
2023/08/11 04:17:13;;;;;;;1.92;1.55;;;;;;;19.41;52.28;94015.94;5071678;28;20036;-89
2023/08/11 04:19:39;;;;;;;1.83;1.50;;;;;;;19.48;51.98;94024.41;5060585;27;20028;-92
2023/08/11 04:22:05;;;;;;;2.97;1.50;;;;;;;19.73;51.83;94030.06;5092738;28;20392;-91
2023/08/11 04:24:31;;;;;;;1.98;1.50;;;;;;;19.74;51.23;94026.81;5074738;28;20028;-91
2023/08/11 04:26:56;;;;;;;1.67;1.45;;;;;;;19.66;51.67;94028.59;5077544;27;20043;-90
2023/08/11 04:29:22;;;;;;;5.40;1.80;;;;;;;19.65;51.56;94037.34;5058938;28;20428;-90
2023/08/11 04:31:47;;;;;;;2.00;1.80;;;;;;;19.61;51.53;94047.81;5064698;28;20514;-91
2023/08/11 04:34:14;;;;;;;3.10;1.58;;;;;;;19.58;51.44;94035.84;5091893;28;20046;-90
2023/08/11 04:36:39;;;;;;;1.75;1.50;;;;;;;19.58;51.71;94026.88;5092740;27;20400;-90
2023/08/11 04:39:05;;;;;;;1.60;1.23;;;;;;;19.58;51.90;94035.09;5067085;28;20028;-92
2023/08/11 04:41:31;;;;;;;2.00;1.58;;;;;;;19.57;51.90;94036.34;5091726;27;20039;-91
2023/08/11 04:43:57;;;;;;;1.60;1.40;;;;;;;19.61;51.76;94039.59;5094264;27;20062;-92
2023/08/11 04:46:23;;;;;;;2.22;1.35;;;;;;;19.60;51.84;94040.84;5077929;27;20100;-90
2023/08/11 04:48:48;;;;;;;1.70;1.40;;;;;;;19.58;51.91;94033.13;5072540;28;20451;-89
2023/08/11 04:51:13;;;;;;;1.38;1.27;;;;;;;19.58;51.87;94044.09;5066233;27;20047;-89
2023/08/11 04:53:39;;;;;;;1.70;1.23;;;;;;;19.61;51.92;94045.06;5059319;28;20043;-89
2023/08/11 04:56:04;;;;;;;2.70;1.70;;;;;;;19.60;51.99;94035.34;5078427;27;20031;-90
2023/08/11 04:58:38;;;;;;;1.45;1.30;;;;;;;19.61;51.75;94045.06;5078006;27;20043;-88
2023/08/11 05:01:04;;;;;;;1.33;1.10;;;;;;;19.63;51.86;94046.06;5079173;27;20437;-90
2023/08/11 05:03:29;;;;;;;2.63;1.40;;;;;;;19.61;51.82;94048.56;5082524;28;20165;-90
2023/08/11 05:05:55;;;;;;;0.93;0.90;;;;;;;19.62;51.58;94049.31;5070991;28;20429;-90
2023/08/11 05:08:21;;;;;;;1.60;1.33;;;;;;;19.63;51.90;94046.06;5093211;27;20043;-93
2023/08/11 05:10:46;;;;;;;1.67;1.10;;;;;;;19.64;51.96;94055.78;5066741;28;20066;-93
2023/08/11 05:13:12;;;;;;;5.43;1.52;;;;;;;19.64;51.95;94050.31;5094942;27;20039;-89
2023/08/11 05:15:38;;;;;;;1.30;1.15;;;;;;;19.66;51.75;94055.28;5077934;28;20048;-88
2023/08/11 05:18:04;;;;;;;1.55;1.17;;;;;;;19.69;51.71;94044.06;5074862;28;20039;-92
2023/08/11 05:20:30;;;;;;;2.10;1.40;;;;;;;19.69;51.79;94055.03;5080095;27;20541;-93
2023/08/11 05:22:57;;;;;;;1.17;1.08;;;;;;;19.70;51.82;94056.50;5077643;27;20040;-93
2023/08/11 05:25:22;;;;;;;1.48;1.08;;;;;;;19.72;51.74;94064.22;5077319;27;20071;-89
2023/08/11 05:27:47;;;;;;;1.08;0.98;;;;;;;19.74;51.86;94051.50;5063752;28;20136;-92
2023/08/11 05:30:13;;;;;;;1.15;0.98;;;;;;;19.76;51.66;94064.72;5073737;28;20051;-94
2023/08/11 05:32:39;;;;;;;2.28;1.00;;;;;;;19.76;51.85;94059.22;5071174;28;20126;-90
2023/08/11 05:35:05;;;;;;;1.30;0.90;;;;;;;19.77;51.68;94066.22;5057545;28;20107;-89
2023/08/11 05:37:30;;;;;;;0.90;0.90;;;;;;;19.81;51.71;94061.97;5073617;28;20051;-91
2023/08/11 05:39:56;;;;;;;1.13;0.80;;;;;;;19.81;51.65;94061.22;5073978;28;20043;-90
2023/08/11 05:42:21;;;;;;;2.08;0.95;;;;;;;19.81;52.08;94070.19;5074001;28;20516;-91
2023/08/11 05:44:47;;;;;;;1.17;0.88;;;;;;;19.83;51.69;94077.94;5074518;28;20057;-90
2023/08/11 05:47:12;;;;;;;0.98;0.88;;;;;;;19.82;51.68;94066.19;5070650;27;20413;-92
2023/08/11 05:49:38;;;;;;;1.40;1.10;;;;;;;19.82;51.82;94077.19;5075999;27;20066;-92
2023/08/11 05:52:04;;;;;;;4.50;0.85;;;;;;;19.87;51.74;94072.19;5060301;27;20047;-91
2023/08/11 05:54:29;;;;;;;2.00;1.17;;;;;;;19.87;51.56;94072.19;5093652;27;20038;-92
2023/08/11 05:56:55;;;;;;;1.42;1.00;;;;;;;19.88;51.74;94074.41;5094294;27;20095;-93
2023/08/11 05:59:23;;;;;;;1.10;0.95;;;;;;;19.89;51.74;94077.91;5076260;27;20047;-91
2023/08/11 06:01:49;;;;;;;1.85;0.90;;;;;;;19.90;51.70;94071.91;5077954;27;20038;-93
2023/08/11 06:04:15;;;;;;;1.52;1.00;;;;;;;19.90;51.62;94071.91;5073431;28;20043;-88
2023/08/11 06:06:40;;;;;;;1.20;0.65;;;;;;;19.90;51.88;94077.41;5068758;27;20035;-90
2023/08/11 06:09:07;;;;;;;1.20;0.93;;;;;;;19.94;51.70;94079.88;5105659;27;20046;-92
2023/08/11 06:11:33;;;;;;;1.25;0.82;;;;;;;19.96;51.93;94075.38;5094734;27;20122;-90
2023/08/11 06:13:58;;;;;;;0.70;0.70;;;;;;;19.98;51.66;94089.34;5094051;27;20043;-94
2023/08/11 06:16:24;;;;;;;0.85;0.80;;;;;;;19.97;51.64;94082.34;5086930;27;20042;-89
2023/08/11 06:18:50;;;;;;;0.70;0.60;;;;;;;19.98;51.94;94088.59;5076537;27;20035;-90
2023/08/11 06:21:17;;;;;;;1.98;0.85;;;;;;;20.00;51.62;94083.34;5078633;28;20031;-91
2023/08/11 06:23:42;;;;;;;1.08;0.80;;;;;;;20.00;51.66;94084.09;5074506;28;20036;-92
2023/08/11 06:26:08;;;;;;;0.75;0.60;;;;;;;20.02;51.69;94094.56;5072497;28;20035;-90
2023/08/11 06:28:33;;;;;;;3.13;1.00;;;;;;;20.02;51.87;94089.81;5072728;28;20405;-89
2023/08/11 06:31:01;;;;;;;1.80;0.88;;;;;;;20.03;51.79;94094.06;5070700;28;20232;-91
2023/08/11 06:33:27;;;;;;;1.17;0.80;;;;;;;20.05;51.67;94102.53;5081919;27;20067;-91
2023/08/11 06:35:53;;;;;;;1.00;0.90;;;;;;;20.05;51.72;94097.06;5073432;28;20039;-90
2023/08/11 06:38:18;;;;;;;0.80;0.70;;;;;;;20.06;51.66;94106.78;5055699;28;20032;-93
2023/08/11 06:40:44;;;;;;;1.20;0.90;;;;;;;20.08;51.72;94103.53;5076233;28;20043;-90
2023/08/11 06:43:09;;;;;;;2.15;0.68;;;;;;;20.09;51.70;94100.28;5076362;28;20032;-90
2023/08/11 06:45:35;;;;;;;0.90;0.90;;;;;;;20.09;51.86;94105.78;5072772;28;20033;-93
2023/08/11 06:48:00;;;;;;;2.03;0.90;;;;;;;20.11;51.89;94110.75;5092621;28;20042;-93
2023/08/11 06:50:26;;;;;;;1.13;0.80;;;;;;;20.11;51.70;94103.28;5077381;27;20035;-89
2023/08/11 06:52:51;;;;;;;0.98;0.82;;;;;;;20.13;51.73;94100.78;5060319;27;20062;-90
2023/08/11 06:55:17;;;;;;;1.90;0.80;;;;;;;20.14;51.58;94104.25;5073490;28;20458;-93
2023/08/11 06:57:42;;;;;;;0.75;0.65;;;;;;;20.16;51.70;94109.97;5074855;28;20114;-90
2023/08/11 07:00:08;;;;;;;1.15;0.80;;;;;;;20.16;51.65;94112.72;5076565;28;20036;-91
2023/08/11 07:02:34;;;;;;;0.70;0.70;;;;;;;20.17;51.55;94103.97;5073746;28;20051;-92
2023/08/11 07:05:00;;;;;;;0.90;0.73;;;;;;;20.18;51.86;94121.19;5075616;27;20035;-90
2023/08/11 07:07:25;;;;;;;9.25;0.90;;;;;;;20.17;51.72;94109.47;5068214;28;20046;-91
2023/08/11 07:09:50;;;;;;;1.02;0.60;;;;;;;20.20;51.65;94108.47;5094674;27;20047;-90
2023/08/11 07:12:16;;;;;;;0.75;0.73;;;;;;;20.20;51.72;94111.22;5096864;27;20054;-89
2023/08/11 07:14:42;;;;;;;0.95;0.70;;;;;;;20.19;51.78;94115.22;5079447;27;20043;-93
2023/08/11 07:17:08;;;;;;;2.85;0.90;;;;;;;20.22;51.63;94101.72;5074087;28;20382;-89
2023/08/11 07:19:33;;;;;;;1.75;0.60;;;;;;;20.22;51.57;94116.19;5071810;28;20042;-89
2023/08/11 07:21:59;;;;;;;0.52;0.50;;;;;;;20.23;51.59;94116.94;5067027;28;20089;-92
2023/08/11 07:24:24;;;;;;;0.65;0.50;;;;;;;20.24;51.76;94107.47;5067325;27;20051;-93
2023/08/11 07:26:49;;;;;;;5.53;1.10;;;;;;;20.29;51.39;94121.16;5083636;28;20040;-91
2023/08/11 07:29:15;;;;;;;13.65;1.60;;;;;;;20.28;51.22;94119.66;5072339;27;20092;-91
2023/08/11 07:31:40;;;;;;;5.18;1.27;;;;;;;20.33;51.20;94123.66;5092929;28;20059;-93
2023/08/11 07:34:06;;;;;;;7.70;1.33;;;;;;;20.31;51.39;94123.41;5062589;27;20520;-92
2023/08/11 07:36:31;;;;;;;9.70;1.00;;;;;;;20.32;51.68;94124.91;5080404;27;20031;-90
2023/08/11 07:38:56;;;;;;;1.83;1.25;;;;;;;20.33;51.57;94118.16;5063454;28;20092;-93
2023/08/11 07:41:22;;;;;;;19.77;3.33;;;;;;;20.32;51.40;94117.41;5064583;27;20039;-91
2023/08/11 07:43:47;;;;;;;14.73;3.03;;;;;;;20.32;51.38;94122.16;5084645;27;20456;-92
2023/08/11 07:46:13;;;;;;;13.52;3.47;;;;;;;20.32;51.52;94133.88;5096482;27;20039;-92
2023/08/11 07:48:38;;;;;;;12.40;4.03;;;;;;;20.32;51.70;94122.16;5096305;27;20103;-91
2023/08/11 07:51:04;;;;;;;11.07;4.88;;;;;;;20.33;51.69;94115.41;5087650;28;20574;-91
2023/08/11 07:53:31;;;;;;;19.38;10.60;;;;;;;20.33;51.50;94135.38;5076738;28;20044;-90
2023/08/11 07:55:57;;;;;;;61.63;20.00;;;;;;;20.33;51.48;94131.88;5073749;27;20040;-92
2023/08/11 07:58:22;;;;;;;38.33;16.80;;;;;;;20.33;51.49;94126.41;5095491;27;20047;-91
2023/08/11 08:00:48;;;;;;;40.13;16.77;;;;;;;20.33;51.81;94135.38;5097094;27;20039;-92
2023/08/11 08:03:14;;;;;;;41.17;17.23;;;;;;;20.35;51.75;94137.63;5079217;27;20088;-90
2023/08/11 08:05:40;;;;;;;48.83;18.15;;;;;;;20.37;51.84;94133.13;5074506;27;20041;-91
2023/08/11 08:08:05;;;;;;;37.92;14.32;;;;;;;20.36;51.98;94137.09;5084664;28;20047;-89
2023/08/11 08:10:31;;;;;;;30.02;11.20;;;;;;;20.36;51.80;94137.09;5092806;28;20071;-91
2023/08/11 08:12:56;;;;;;;34.42;12.50;;;;;;;20.35;51.81;94135.59;5093200;28;20040;-90
2023/08/11 08:15:24;;;;;;;22.15;10.75;;;;;;;20.33;51.84;94127.16;5092397;27;20044;-90
2023/08/11 08:17:49;;;;;;;22.77;10.25;;;;;;;20.32;51.51;94131.16;5071164;28;20039;-89
2023/08/11 08:20:16;;;;;;;19.75;9.95;;;;;;;20.34;51.71;94134.13;5092862;28;20062;-92
2023/08/11 08:22:42;;;;;;;22.90;9.30;;;;;;;20.34;51.77;94138.88;5073837;27;20043;-92
2023/08/11 08:25:07;;;;;;;66.32;24.73;;;;;;;20.35;51.96;94132.13;5078009;27;20373;-92
2023/08/11 08:27:36;;;;;;;66.95;24.27;;;;;;;20.34;51.71;94141.63;5082668;28;20043;-90
2023/08/11 08:30:01;;;;;;;63.17;27.00;;;;;;;20.34;52.22;94134.13;5056408;28;20051;-90
2023/08/11 08:32:29;;;;;;;50.08;23.10;;;;;;;20.35;51.81;94132.13;5067029;28;20036;-91
2023/08/11 08:34:54;;;;;;;49.92;21.73;;;;;;;20.34;51.93;94141.63;5077650;28;20044;-90
2023/08/11 08:37:19;;;;;;;47.85;21.40;;;;;;;20.33;51.91;94138.13;5092823;27;20096;-90
2023/08/11 08:39:46;;;;;;;49.50;19.30;;;;;;;20.33;52.01;94134.63;5066026;28;20329;-90
2023/08/11 08:42:13;;;;;;;41.78;16.73;;;;;;;20.32;52.07;94128.41;5072569;28;20033;-93
2023/08/11 08:44:38;;;;;;;39.55;14.65;;;;;;;20.34;51.87;94131.38;5068739;28;20401;-89
2023/08/11 08:47:07;;;;;;;36.10;13.45;;;;;;;20.35;51.82;94132.13;5106364;27;20035;-90
2023/08/11 08:49:32;;;;;;;45.47;14.75;;;;;;;20.36;51.93;94144.59;5096095;27;20039;-93
2023/08/11 08:51:58;;;;;;;57.83;17.52;;;;;;;20.34;51.94;94139.63;5079863;28;20055;-92
2023/08/11 08:54:24;;;;;;;43.00;12.90;;;;;;;20.34;52.03;94138.88;5068239;28;20048;-91
2023/08/11 08:56:51;;;;;;;61.55;19.08;;;;;;;20.35;51.92;94129.38;5078009;28;20043;-90
2023/08/11 08:59:16;;;;;;;123.05;32.35;;;;;;;20.34;51.95;94139.63;5087701;28;20561;-88
2023/08/11 09:01:42;;;;;;;69.03;23.67;;;;;;;20.34;52.18;94134.13;5071393;28;20275;-90
2023/08/11 09:04:07;;;;;;;64.75;22.75;;;;;;;20.39;51.96;94129.88;5084029;28;20039;-89
2023/08/11 09:06:33;;;;;;;58.78;20.77;;;;;;;20.38;52.20;94142.09;5055089;28;20401;-93
2023/08/11 09:09:00;;;;;;;46.15;20.27;;;;;;;20.36;52.39;94126.09;5040198;28;20181;-91
2023/08/11 09:11:26;;;;;;;51.55;22.20;;;;;;;20.38;51.86;94137.38;5036068;28;20063;-90
2023/08/11 09:13:52;;;;;;;47.45;21.70;;;;;;;20.36;52.01;94131.59;5051277;28;20072;-92
2023/08/11 09:16:17;;;;;;;38.75;16.52;;;;;;;20.35;52.14;94124.63;5050913;28;20618;-89
2023/08/11 09:18:43;;;;;;;37.88;18.02;;;;;;;20.35;52.14;94132.13;5069212;28;20047;-92
2023/08/11 09:21:08;;;;;;;34.67;15.88;;;;;;;20.36;52.06;94128.09;5055924;28;20496;-92
2023/08/11 09:23:35;;;;;;;34.17;15.75;;;;;;;20.36;51.92;94131.59;5030951;28;20051;-90
2023/08/11 09:26:01;;;;;;;31.55;15.52;;;;;;;20.36;52.21;94141.84;5037292;28;20048;-92
2023/08/11 09:28:26;;;;;;;27.10;14.05;;;;;;;20.36;51.93;94139.84;5032873;28;20055;-89
2023/08/11 09:30:54;;;;;;;30.00;14.32;;;;;;;20.37;52.00;94138.63;5051397;28;20048;-92
2023/08/11 09:33:22;;;;;;;22.25;13.82;;;;;;;20.38;51.99;94136.63;5056514;28;20048;-91
2023/08/11 09:35:48;;;;;;;38.13;20.30;;;;;;;20.38;52.07;94136.63;5066374;28;20117;-89
2023/08/11 09:38:13;;;;;;;51.45;29.33;;;;;;;20.38;51.94;94126.38;5051886;28;20041;-91
2023/08/11 09:40:39;;;;;;;62.47;35.55;;;;;;;20.38;52.24;94131.88;5068708;28;20047;-91
2023/08/11 09:43:05;;;;;;;65.43;34.55;;;;;;;20.38;52.07;94128.38;5080929;28;20521;-93
2023/08/11 09:45:31;;;;;;;47.50;29.00;;;;;;;20.37;52.20;94121.38;5073061;28;20044;-92
2023/08/11 09:47:57;;;;;;;40.58;21.80;;;;;;;20.37;52.30;94129.63;5071782;28;20410;-93
2023/08/11 09:50:22;;;;;;;36.08;20.05;;;;;;;20.36;52.13;94139.09;5069632;28;20040;-92
2023/08/11 09:52:47;;;;;;;57.00;28.67;;;;;;;20.36;52.18;94125.38;5068439;28;20040;-90
2023/08/11 09:55:13;;;;;;;51.22;30.48;;;;;;;20.36;52.21;94134.34;5061389;28;20039;-91
2023/08/11 09:57:41;;;;;;;43.08;28.10;;;;;;;20.35;52.29;94129.38;5070237;28;20199;-91
2023/08/11 10:00:13;;;;;;;60.63;33.13;;;;;;;20.37;51.98;94124.88;5051787;28;20044;-89
2023/08/11 10:02:45;;;;;;;50.05;24.50;;;;;;;20.35;52.15;94119.13;5063937;28;20033;-89
2023/08/11 10:05:11;;;;;;;47.78;31.50;;;;;;;20.36;52.25;94108.88;5075930;28;20064;-90
2023/08/11 10:07:39;;;;;;;46.53;25.92;;;;;;;20.36;52.24;94115.13;5058304;28;20039;-91
2023/08/11 10:10:10;;;;;;;51.05;30.77;;;;;;;20.38;52.11;94125.63;5062769;28;20040;-91
2023/08/11 10:12:36;;;;;;;51.05;28.15;;;;;;;20.36;52.12;94117.88;5051813;28;20037;-89
2023/08/11 10:15:03;;;;;;;64.68;39.17;;;;;;;20.38;52.16;94117.41;5069353;28;20040;-90
2023/08/11 10:17:28;;;;;;;74.90;34.53;;;;;;;20.37;52.46;94113.16;5055337;28;20064;-93
2023/08/11 10:19:54;;;;;;;37.08;20.83;;;;;;;20.36;52.24;94117.88;5069746;28;20044;-93
2023/08/11 10:22:19;;;;;;;52.90;28.38;;;;;;;20.35;52.14;94124.63;5052474;28;20033;-90
2023/08/11 10:24:46;;;;;;;62.95;31.83;;;;;;;20.37;52.26;94127.63;5059027;28;20048;-91
2023/08/11 10:27:12;;;;;;;47.28;23.75;;;;;;;20.37;52.19;94113.16;5058078;28;20036;-92
2023/08/11 10:29:37;;;;;;;48.30;24.80;;;;;;;20.37;52.08;94130.38;5079937;28;20051;-93
2023/08/11 10:32:03;;;;;;;69.80;33.08;;;;;;;20.37;52.29;94113.16;5085847;28;20052;-90
2023/08/11 10:34:28;;;;;;;74.65;34.67;;;;;;;20.39;52.02;94119.63;5067548;28;20101;-90
2023/08/11 10:36:55;;;;;;;59.42;29.13;;;;;;;20.41;52.35;94122.63;5068022;28;20337;-93
2023/08/11 10:39:21;;;;;;;78.68;37.58;;;;;;;20.40;52.48;94123.13;5067204;28;20109;-91
2023/08/11 10:41:47;;;;;;;80.35;37.30;;;;;;;20.40;52.34;94112.16;5066495;28;20048;-92
2023/08/11 10:44:15;;;;;;;79.55;36.47;;;;;;;20.39;52.42;94105.16;5066786;28;20049;-88
2023/08/11 10:46:41;;;;;;;59.70;32.15;;;;;;;20.38;52.62;94122.88;5066297;28;20493;-91
2023/08/11 10:49:19;;;;;;;63.30;28.63;;;;;;;20.38;52.20;94118.13;5093936;28;20079;-88
2023/08/11 10:51:45;;;;;;;53.22;27.83;;;;;;;20.37;52.16;94113.91;5073200;28;20056;-90
2023/08/11 10:54:11;;;;;;;49.33;25.17;;;;;;;20.35;52.24;94105.41;5055146;28;20497;-91
2023/08/11 10:56:40;;;;;;;49.28;26.15;;;;;;;20.35;52.35;94101.94;5049672;28;20040;-92
2023/08/11 10:59:12;;;;;;;48.95;27.15;;;;;;;20.33;52.32;94110.66;5066201;28;20044;-92
2023/08/11 11:01:39;;;;;;;53.08;25.52;;;;;;;20.34;52.18;94097.69;5068985;28;20097;-92
2023/08/11 11:04:06;;;;;;;43.80;27.58;;;;;;;20.34;52.35;94105.94;5069847;28;20033;-91
2023/08/11 11:06:31;;;;;;;46.47;27.17;;;;;;;20.33;52.33;94113.41;5051463;28;20041;-88
2023/08/11 11:08:57;;;;;;;45.47;27.52;;;;;;;20.32;52.42;94108.44;5048343;28;20059;-91
2023/08/11 11:11:22;;;;;;;45.60;26.33;;;;;;;20.32;52.54;94100.19;5087236;28;20036;-91
2023/08/11 11:13:48;;;;;;;45.58;26.13;;;;;;;20.32;52.47;94100.94;5063981;28;20040;-90
2023/08/11 11:16:13;;;;;;;54.13;28.52;;;;;;;20.33;52.51;94105.19;5052578;28;20037;-90
2023/08/11 11:18:42;;;;;;;60.67;29.10;;;;;;;20.33;52.49;94107.94;5035271;28;20063;-91
2023/08/11 11:21:08;;;;;;;48.88;28.50;;;;;;;20.33;52.52;94107.19;5034495;28;20098;-90
2023/08/11 11:23:33;;;;;;;55.97;29.55;;;;;;;20.32;52.72;94105.69;5066978;28;20498;-89